createdAt,value
2019-03-23T00:00:13.126Z,55.90
2019-03-23T00:02:43.384Z,55.60
2019-03-23T00:05:12.515Z,55.80
2019-03-23T00:07:41.330Z,56.30
2019-03-23T00:10:10.936Z,55.50
2019-03-23T00:12:39.717Z,53.80
2019-03-23T00:15:09.080Z,55.00
2019-03-23T00:17:37.914Z,53.80
2019-03-23T00:20:06.735Z,54.20
2019-03-23T00:22:35.834Z,54.00
2019-03-23T00:25:04.920Z,53.90
2019-03-23T00:27:33.766Z,54.50
2019-03-23T00:30:02.555Z,55.10
2019-03-23T00:32:31.474Z,55.40
2019-03-23T00:35:00.366Z,55.90
2019-03-23T00:37:29.401Z,56.20
2019-03-23T00:39:58.217Z,56.50
2019-03-23T00:42:27.332Z,56.60
2019-03-23T00:44:56.599Z,56.00
2019-03-23T00:47:25.424Z,56.40
2019-03-23T00:49:54.340Z,56.00
2019-03-23T00:52:23.273Z,56.10
2019-03-23T00:54:52.078Z,57.10
2019-03-23T00:57:20.961Z,56.50
2019-03-23T00:59:49.710Z,57.00
2019-03-23T01:02:18.977Z,57.90
2019-03-23T01:04:47.803Z,58.10
2019-03-23T01:07:16.925Z,57.00
2019-03-23T01:09:45.777Z,57.50
2019-03-23T01:12:14.565Z,58.10
2019-03-23T01:14:43.511Z,58.10
2019-03-23T01:17:12.356Z,57.00
2019-03-23T01:19:41.256Z,57.50
2019-03-23T01:22:11.155Z,56.70
2019-03-23T01:24:40.306Z,57.10
2019-03-23T01:27:14.720Z,57.00
2019-03-23T01:29:44.325Z,55.80
2019-03-23T01:32:13.481Z,56.20
2019-03-23T01:34:42.296Z,55.80
2019-03-23T01:37:11.146Z,55.60
2019-03-23T01:39:39.893Z,56.20
2019-03-23T01:42:08.832Z,56.20
2019-03-23T01:44:38.373Z,55.90
2019-03-23T01:47:07.259Z,56.40
2019-03-23T01:49:36.056Z,56.40
2019-03-23T01:52:04.770Z,57.50
2019-03-23T01:54:34.017Z,56.30
2019-03-23T01:57:02.790Z,57.50
2019-03-23T01:59:31.960Z,56.00
2019-03-23T02:02:01.336Z,57.10
2019-03-23T02:04:30.441Z,57.00
2019-03-23T02:06:59.504Z,57.20
2019-03-23T02:09:28.702Z,58.30
2019-03-23T02:11:57.553Z,57.70
2019-03-23T02:14:26.629Z,57.70
2019-03-23T02:16:55.481Z,60.00
2019-03-23T02:19:24.402Z,57.90
2019-03-23T02:21:53.226Z,58.80
2019-03-23T02:24:22.067Z,57.30
2019-03-23T02:26:55.238Z,57.30
2019-03-23T02:29:24.944Z,57.60
2019-03-23T02:31:53.829Z,57.60
2019-03-23T02:34:22.783Z,58.50
2019-03-23T02:36:51.573Z,57.00
2019-03-23T02:39:21.124Z,57.30
2019-03-23T02:41:49.974Z,57.60
2019-03-23T02:44:19.546Z,57.60
2019-03-23T02:46:48.426Z,58.20
2019-03-23T02:49:17.365Z,59.10
2019-03-23T02:51:46.225Z,59.20
2019-03-23T02:54:15.062Z,58.70
2019-03-23T02:56:43.920Z,59.10
2019-03-23T02:59:13.129Z,58.20
2019-03-23T03:01:42.264Z,58.90
2019-03-23T03:04:11.061Z,59.00
2019-03-23T03:06:39.909Z,59.20
2019-03-23T03:09:09.047Z,59.80
2019-03-23T03:11:38.194Z,59.70
2019-03-23T03:14:07.118Z,61.30
2019-03-23T03:16:36.023Z,61.50
2019-03-23T03:19:04.931Z,61.80
2019-03-23T03:21:34.854Z,60.60
2019-03-23T03:24:03.746Z,60.50
2019-03-23T03:26:32.601Z,60.90
2019-03-23T03:29:01.459Z,62.20
2019-03-23T03:31:30.427Z,62.80
2019-03-23T03:33:59.245Z,62.60
2019-03-23T03:36:30.035Z,59.90
2019-03-23T03:38:59.092Z,60.40
2019-03-23T03:41:28.096Z,61.40
2019-03-23T03:43:56.905Z,62.50
2019-03-23T03:46:26.113Z,61.70
2019-03-23T03:48:54.938Z,61.50
2019-03-23T03:51:24.160Z,60.00
2019-03-23T03:53:52.980Z,60.40
2019-03-23T03:56:21.775Z,60.50
2019-03-23T03:58:51.015Z,60.40
2019-03-23T04:01:19.915Z,60.70
2019-03-23T04:03:48.898Z,61.10
2019-03-23T04:06:17.852Z,61.70
2019-03-23T04:08:48.027Z,60.50
2019-03-23T04:11:16.822Z,60.80
2019-03-23T04:13:45.959Z,61.10
2019-03-23T04:16:15.088Z,61.50
2019-03-23T04:18:43.916Z,61.60
2019-03-23T04:21:12.726Z,61.60
2019-03-23T04:23:41.856Z,62.70
2019-03-23T04:26:10.689Z,64.20
2019-03-23T04:28:39.471Z,64.90
2019-03-23T04:31:10.453Z,64.30
2019-03-23T04:33:39.314Z,63.60
2019-03-23T04:36:08.112Z,64.80
2019-03-23T04:38:37.198Z,64.20
2019-03-23T04:41:06.341Z,64.10
2019-03-23T04:43:35.387Z,64.40
2019-03-23T04:46:04.245Z,64.40
2019-03-23T04:48:33.385Z,63.80
2019-03-23T04:51:02.173Z,63.30
2019-03-23T04:53:31.369Z,63.30
2019-03-23T04:56:00.198Z,63.30
2019-03-23T04:58:30.794Z,63.70
2019-03-23T05:01:00.988Z,64.40
2019-03-23T05:03:30.389Z,64.10
2019-03-23T05:05:59.173Z,62.10
2019-03-23T05:08:33.189Z,61.40
2019-03-23T05:10:58.735Z,62.00
2019-03-23T05:13:28.689Z,62.10
2019-03-23T05:15:57.477Z,62.40
2019-03-23T05:18:26.575Z,62.60
2019-03-23T05:20:55.671Z,63.20
2019-03-23T05:23:24.812Z,63.30
2019-03-23T05:25:53.913Z,63.80
2019-03-23T05:28:23.054Z,64.00
2019-03-23T05:30:52.413Z,64.80
2019-03-23T05:33:21.244Z,65.50
2019-03-23T05:35:50.014Z,65.80
2019-03-23T05:38:18.813Z,66.40
2019-03-23T05:40:47.605Z,67.50
2019-03-23T05:43:16.862Z,67.30
2019-03-23T05:45:45.686Z,64.50
2019-03-23T05:48:14.854Z,66.30
2019-03-23T05:50:43.980Z,64.30
2019-03-23T05:53:13.099Z,65.80
2019-03-23T05:55:42.193Z,65.70
2019-03-23T05:58:11.032Z,63.90
2019-03-23T06:00:39.817Z,63.30
2019-03-23T06:03:08.623Z,63.10
2019-03-23T06:05:37.452Z,64.20
2019-03-23T06:08:06.485Z,64.70
2019-03-23T06:10:36.271Z,65.40
2019-03-23T06:13:05.326Z,65.70
2019-03-23T06:15:34.114Z,66.50
2019-03-23T06:18:03.287Z,66.20
2019-03-23T06:20:32.169Z,65.50
2019-03-23T06:23:00.967Z,65.90
2019-03-23T06:25:29.791Z,64.80
2019-03-23T06:27:58.667Z,64.40
2019-03-23T06:30:27.544Z,63.80
2019-03-23T06:32:59.345Z,63.90
2019-03-23T06:35:28.441Z,64.10
2019-03-23T06:37:57.239Z,62.80
2019-03-23T06:40:26.324Z,63.50
2019-03-23T06:42:59.700Z,63.00
2019-03-23T06:45:26.514Z,64.20
2019-03-23T06:47:55.614Z,62.30
2019-03-23T06:50:24.400Z,61.10
2019-03-23T06:52:53.187Z,61.40
2019-03-23T06:55:21.936Z,61.10
2019-03-23T06:57:50.704Z,60.50
2019-03-23T07:00:19.477Z,60.30
2019-03-23T07:02:48.884Z,60.10
2019-03-23T07:05:17.668Z,59.40
2019-03-23T07:07:46.845Z,59.50
2019-03-23T07:10:16.119Z,58.70
2019-03-23T07:12:44.855Z,58.60
2019-03-23T07:15:20.055Z,58.10
2019-03-23T07:17:44.383Z,58.20
2019-03-23T07:20:13.512Z,58.40
2019-03-23T07:22:42.865Z,56.90
2019-03-23T07:25:11.683Z,55.60
2019-03-23T07:27:40.456Z,55.10
2019-03-23T07:30:12.266Z,55.00
2019-03-23T07:32:41.434Z,53.30
2019-03-23T07:35:10.545Z,53.80
2019-03-23T07:37:39.743Z,54.20
2019-03-23T07:40:08.928Z,54.00
2019-03-23T07:42:37.792Z,53.40
2019-03-23T07:45:06.769Z,52.80
2019-03-23T07:47:35.665Z,53.10
2019-03-23T07:50:05.512Z,53.00
2019-03-23T07:52:34.595Z,52.80
2019-03-23T07:55:10.729Z,52.60
2019-03-23T07:57:40.050Z,51.80
2019-03-23T08:00:10.592Z,51.70
2019-03-23T08:02:39.816Z,50.70
2019-03-23T08:05:08.668Z,51.00
2019-03-23T08:07:37.574Z,52.50
2019-03-23T08:10:06.527Z,49.80
2019-03-23T08:12:35.440Z,49.10
2019-03-23T08:15:05.277Z,49.10
2019-03-23T08:17:34.120Z,49.00
2019-03-23T08:20:03.512Z,48.90
2019-03-23T08:22:32.693Z,49.20
2019-03-23T08:25:01.614Z,47.50
2019-03-23T08:27:30.413Z,48.10
2019-03-23T08:29:59.369Z,47.70
2019-03-23T08:32:28.891Z,46.80
2019-03-23T08:34:58.727Z,46.80
2019-03-23T08:37:27.889Z,47.00
2019-03-23T08:39:56.849Z,46.00
2019-03-23T08:42:26.827Z,45.50
2019-03-23T08:44:55.571Z,46.00
2019-03-23T08:47:24.404Z,46.50
2019-03-23T08:49:53.435Z,44.70
2019-03-23T08:52:22.329Z,45.20
2019-03-23T08:54:51.076Z,45.30
2019-03-23T08:57:19.873Z,44.80
2019-03-23T08:59:48.987Z,44.00
2019-03-23T09:02:18.091Z,44.30
2019-03-23T09:04:47.303Z,43.80
2019-03-23T09:07:16.473Z,42.60
2019-03-23T09:09:45.422Z,42.00
2019-03-23T09:12:14.347Z,42.70
2019-03-23T09:14:43.300Z,43.00
2019-03-23T09:17:12.432Z,42.40
2019-03-23T09:19:41.592Z,41.70
2019-03-23T09:22:10.409Z,42.20
2019-03-23T09:24:39.190Z,41.80
2019-03-23T09:27:08.396Z,41.80
2019-03-23T09:29:37.517Z,39.80
2019-03-23T09:32:06.385Z,40.30
2019-03-23T09:34:35.480Z,40.30
2019-03-23T09:37:04.467Z,40.30
2019-03-23T09:39:33.569Z,39.50
2019-03-23T09:42:02.397Z,39.90
2019-03-23T09:44:31.256Z,40.20
2019-03-23T09:47:00.067Z,39.50
2019-03-23T09:49:31.297Z,38.90
2019-03-23T09:52:00.169Z,37.90
2019-03-23T09:54:29.092Z,38.70
2019-03-23T09:56:59.584Z,37.30
2019-03-23T09:59:29.329Z,37.10
2019-03-23T10:01:58.408Z,36.90
2019-03-23T10:04:27.264Z,35.90
2019-03-23T10:06:56.031Z,35.60
2019-03-23T10:09:24.899Z,35.40
2019-03-23T10:11:53.703Z,34.90
2019-03-23T10:14:22.806Z,34.00
2019-03-23T10:16:51.682Z,33.40
2019-03-23T10:19:20.604Z,33.00
2019-03-23T10:21:49.424Z,32.50
2019-03-23T10:24:18.238Z,32.50
2019-03-23T10:26:47.077Z,32.30
2019-03-23T10:29:16.169Z,31.80
2019-03-23T10:31:45.510Z,30.80
2019-03-23T10:34:14.335Z,31.10
2019-03-23T10:36:43.189Z,29.80
2019-03-23T10:39:11.970Z,29.30
2019-03-23T10:41:40.840Z,30.00
2019-03-23T10:44:10.118Z,28.90
2019-03-23T10:46:39.646Z,29.20
2019-03-23T10:49:09.022Z,28.70
2019-03-23T10:51:37.938Z,29.10
2019-03-23T10:54:07.080Z,27.70
2019-03-23T10:56:36.046Z,28.30
2019-03-23T10:59:05.211Z,27.10
2019-03-23T11:01:34.715Z,26.10
2019-03-23T11:04:03.523Z,26.60
2019-03-23T11:06:32.450Z,26.10
2019-03-23T11:09:01.484Z,26.20
2019-03-23T11:11:32.142Z,25.30
2019-03-23T11:14:02.214Z,25.60
2019-03-23T11:16:30.958Z,25.90
2019-03-23T11:19:00.136Z,25.30
2019-03-23T11:21:28.954Z,24.70
2019-03-23T11:23:57.812Z,24.30
2019-03-23T11:26:28.134Z,24.70
2019-03-23T11:28:57.512Z,25.10
2019-03-23T11:31:26.339Z,24.90
2019-03-23T11:33:56.242Z,25.10
2019-03-23T11:36:25.196Z,25.20
2019-03-23T11:38:54.011Z,25.30
2019-03-23T11:41:23.043Z,24.20
2019-03-23T11:43:51.934Z,25.30
2019-03-23T11:46:21.030Z,25.30
2019-03-23T11:48:50.445Z,25.40
2019-03-23T11:51:19.644Z,25.00
2019-03-23T11:53:48.424Z,24.80
2019-03-23T11:56:17.475Z,25.30
2019-03-23T11:58:46.554Z,25.50
2019-03-23T12:01:15.401Z,25.40
2019-03-23T12:03:44.483Z,25.90
2019-03-23T12:06:13.334Z,25.70
2019-03-23T12:08:42.209Z,24.80
2019-03-23T12:11:11.025Z,25.30
2019-03-23T12:13:40.061Z,25.00
2019-03-23T12:16:09.330Z,25.00
2019-03-23T12:18:38.227Z,24.90
2019-03-23T12:21:07.085Z,25.40
2019-03-23T12:23:36.157Z,23.80
2019-03-23T12:26:05.438Z,24.80
2019-03-23T12:28:34.808Z,23.80
2019-03-23T12:31:11.953Z,24.90
2019-03-23T12:33:47.002Z,25.20
2019-03-23T12:36:16.013Z,24.70
2019-03-23T12:38:45.012Z,23.80
2019-03-23T12:41:22.721Z,24.70
2019-03-23T12:43:44.959Z,24.80
2019-03-23T12:46:14.859Z,25.10
2019-03-23T12:48:43.962Z,25.60
2019-03-23T12:51:12.764Z,22.30
2019-03-23T12:53:42.115Z,22.70
2019-03-23T12:56:11.575Z,23.30
2019-03-23T12:58:40.454Z,23.30
2019-03-23T13:01:09.293Z,23.60
2019-03-23T13:03:38.184Z,23.30
2019-03-23T13:06:07.036Z,22.90
2019-03-23T13:08:35.886Z,22.90
2019-03-23T13:11:04.888Z,22.30
2019-03-23T13:13:34.158Z,21.70
2019-03-23T13:16:02.986Z,21.70
2019-03-23T13:18:31.913Z,22.10
2019-03-23T13:21:03.145Z,21.30
2019-03-23T13:23:34.089Z,21.80
2019-03-23T13:26:02.903Z,21.80
2019-03-23T13:28:31.671Z,21.30
2019-03-23T13:31:01.962Z,21.70
2019-03-23T13:33:30.751Z,21.90
2019-03-23T13:35:59.648Z,20.80
2019-03-23T13:38:29.499Z,20.30
2019-03-23T13:40:58.562Z,19.50
2019-03-23T13:43:27.907Z,19.70
2019-03-23T13:45:56.809Z,19.10
2019-03-23T13:48:25.808Z,18.60
2019-03-23T13:50:55.256Z,18.90
2019-03-23T13:53:24.351Z,18.20
2019-03-23T13:55:53.561Z,16.70
2019-03-23T13:58:22.680Z,17.10
2019-03-23T14:00:51.941Z,16.10
2019-03-23T14:03:20.693Z,15.20
2019-03-23T14:05:49.495Z,14.10
2019-03-23T14:08:19.699Z,14.20
2019-03-23T14:10:49.355Z,14.00
2019-03-23T14:15:47.930Z,12.30
2019-03-23T14:18:17.511Z,12.70
2019-03-23T14:20:46.480Z,12.40
2019-03-23T14:23:15.632Z,13.30
2019-03-23T14:25:44.981Z,13.60
2019-03-23T14:28:14.143Z,13.50
2019-03-23T14:30:43.230Z,13.60
2019-03-23T14:33:12.394Z,12.50
2019-03-23T14:35:46.031Z,12.60
2019-03-23T14:38:14.947Z,12.60
2019-03-23T14:40:43.900Z,12.10
2019-03-23T14:43:12.686Z,12.10
2019-03-23T14:45:41.670Z,11.30
2019-03-23T14:48:10.621Z,11.80
2019-03-23T14:50:39.414Z,12.10
2019-03-23T14:53:08.277Z,12.60
2019-03-23T14:55:37.533Z,12.80
2019-03-23T14:58:06.602Z,11.60
2019-03-23T15:00:36.172Z,12.00
2019-03-23T15:03:04.959Z,12.50
2019-03-23T15:05:33.773Z,12.40
2019-03-23T15:08:02.671Z,12.70
2019-03-23T15:10:31.478Z,12.40
2019-03-23T15:13:01.404Z,12.60
2019-03-23T15:15:30.226Z,12.60
2019-03-23T15:18:00.138Z,14.70
2019-03-23T15:20:28.891Z,14.60
2019-03-23T15:22:58.266Z,14.20
2019-03-23T15:25:27.390Z,14.60
2019-03-23T15:27:58.390Z,13.00
2019-03-23T15:30:27.181Z,13.40
2019-03-23T15:32:56.038Z,14.20
2019-03-23T15:35:24.835Z,13.50
2019-03-23T15:37:53.656Z,14.00
2019-03-23T15:40:22.461Z,13.30
2019-03-23T15:42:52.967Z,13.50
2019-03-23T15:45:21.795Z,13.20
2019-03-23T15:47:50.687Z,13.10
2019-03-23T15:50:19.859Z,14.10
2019-03-23T15:52:48.764Z,13.90
2019-03-23T15:55:17.628Z,14.30
2019-03-23T15:57:46.409Z,14.10
2019-03-23T16:00:25.027Z,14.40
2019-03-23T16:02:53.810Z,14.50
2019-03-23T16:05:23.085Z,14.10
2019-03-23T16:07:52.053Z,13.40
2019-03-23T16:10:20.894Z,13.70
2019-03-23T16:12:50.113Z,14.50
2019-03-23T16:15:19.000Z,14.80
2019-03-23T16:17:48.011Z,15.30
2019-03-23T16:20:17.301Z,15.60
2019-03-23T16:22:46.745Z,15.60
2019-03-23T16:25:15.567Z,15.30
2019-03-23T16:27:44.783Z,15.70
2019-03-23T16:30:16.217Z,15.70
2019-03-23T16:32:45.009Z,15.70
2019-03-23T16:35:13.753Z,15.80
2019-03-23T16:37:42.592Z,15.80
2019-03-23T16:40:11.485Z,16.30
2019-03-23T16:42:45.217Z,17.20
2019-03-23T16:45:11.167Z,16.60
2019-03-23T16:47:40.067Z,16.90
2019-03-23T16:50:09.645Z,16.60
2019-03-23T16:52:39.585Z,17.20
2019-03-23T16:55:08.884Z,17.50
2019-03-23T16:57:37.809Z,18.50
2019-03-23T17:00:07.665Z,19.10
2019-03-23T17:02:36.749Z,20.00
2019-03-23T17:05:06.011Z,20.50
2019-03-23T17:07:35.938Z,21.60
2019-03-23T17:10:05.915Z,22.30
2019-03-23T17:12:34.944Z,22.90
2019-03-23T17:15:04.644Z,23.30
2019-03-23T17:17:33.648Z,23.80
2019-03-23T17:20:03.213Z,24.50
2019-03-23T17:22:32.156Z,24.80
2019-03-23T17:25:01.244Z,24.80
2019-03-23T17:27:30.437Z,24.90
2019-03-23T17:29:59.233Z,25.60
2019-03-23T17:32:28.171Z,26.00
2019-03-23T17:35:00.973Z,26.20
2019-03-23T17:37:30.388Z,26.60
2019-03-23T17:39:59.244Z,26.70
2019-03-23T17:42:31.475Z,26.70
2019-03-23T17:45:00.364Z,27.90
2019-03-23T17:47:30.410Z,28.10
2019-03-23T17:49:59.960Z,28.20
2019-03-23T17:52:28.746Z,28.20
2019-03-23T17:54:57.986Z,28.70
2019-03-23T17:57:27.631Z,29.00
2019-03-23T17:59:56.405Z,29.10
2019-03-23T18:02:25.409Z,28.80
2019-03-23T18:04:54.278Z,28.80
2019-03-23T18:07:25.401Z,29.20
2019-03-23T18:09:54.181Z,29.60
2019-03-23T18:12:22.982Z,30.00
2019-03-23T18:14:51.836Z,29.90
2019-03-23T18:17:21.702Z,29.70
2019-03-23T18:19:50.566Z,29.60
2019-03-23T18:22:19.397Z,29.70
2019-03-23T18:27:18.930Z,29.70
2019-03-23T18:29:50.775Z,29.60
2019-03-23T18:32:19.684Z,30.00
2019-03-23T18:34:49.139Z,30.00
2019-03-23T18:37:19.369Z,30.50
2019-03-23T18:39:48.594Z,30.20
2019-03-23T18:42:17.431Z,31.00
2019-03-23T18:44:46.987Z,31.40
2019-03-23T18:47:16.738Z,31.50
2019-03-23T18:49:46.426Z,30.80
2019-03-23T18:52:17.048Z,31.40
2019-03-23T18:54:46.070Z,32.10
2019-03-23T18:57:15.343Z,30.70
2019-03-23T18:59:44.279Z,30.70
2019-03-23T19:02:13.166Z,31.40
2019-03-23T19:04:42.238Z,31.70
2019-03-23T19:07:11.049Z,31.70
2019-03-23T19:09:39.946Z,31.60
2019-03-23T19:12:08.924Z,32.10
2019-03-23T19:14:38.159Z,32.10
2019-03-23T19:17:07.019Z,32.20
2019-03-23T19:19:36.023Z,32.00
2019-03-23T19:22:04.858Z,32.80
2019-03-23T19:24:33.663Z,32.60
2019-03-23T19:27:03.132Z,32.90
2019-03-23T19:29:31.999Z,32.80
2019-03-23T19:32:01.987Z,33.20
2019-03-23T19:34:31.904Z,33.70
2019-03-23T19:37:00.785Z,34.00
2019-03-23T19:39:29.951Z,34.30
2019-03-23T19:41:58.899Z,35.40
2019-03-23T19:44:28.167Z,36.00
2019-03-23T19:46:57.281Z,36.00
2019-03-23T19:49:26.170Z,36.80
2019-03-23T19:51:54.965Z,35.80
2019-03-23T19:54:23.791Z,36.70
2019-03-23T19:56:53.080Z,36.50
2019-03-23T19:59:21.833Z,37.00
2019-03-23T20:01:50.732Z,38.00
2019-03-23T20:04:20.468Z,38.20
2019-03-23T20:06:49.398Z,38.70
2019-03-23T20:09:18.489Z,39.00
2019-03-23T20:11:48.061Z,39.20
2019-03-23T20:14:17.111Z,39.50
2019-03-23T20:16:45.922Z,39.80
2019-03-23T20:19:14.809Z,41.10
2019-03-23T20:21:43.615Z,40.70
2019-03-23T20:24:13.046Z,40.40
2019-03-23T20:26:41.875Z,39.90
2019-03-23T20:29:10.995Z,40.00
2019-03-23T20:31:39.905Z,40.50
2019-03-23T20:34:08.725Z,40.70
2019-03-23T20:36:37.829Z,40.60
2019-03-23T20:39:07.219Z,41.30
2019-03-23T20:41:37.975Z,40.70
2019-03-23T20:44:09.761Z,40.60
2019-03-23T20:46:37.798Z,40.50
2019-03-23T20:49:07.107Z,41.80
2019-03-23T20:51:36.105Z,42.00
2019-03-23T20:54:05.038Z,42.60
2019-03-23T20:56:39.064Z,42.50
2019-03-23T20:59:08.412Z,43.90
2019-03-23T21:01:37.401Z,44.70
2019-03-23T21:04:06.593Z,45.00
2019-03-23T21:06:35.749Z,44.80
2019-03-23T21:09:06.640Z,45.40
2019-03-23T21:11:35.891Z,45.70
2019-03-23T21:14:04.779Z,46.10
2019-03-23T21:16:34.027Z,46.70
2019-03-23T21:19:03.141Z,47.90
2019-03-23T21:21:32.136Z,47.60
2019-03-23T21:24:01.038Z,48.00
2019-03-23T21:26:32.889Z,48.50
2019-03-23T21:29:01.810Z,49.10
2019-03-23T21:31:30.665Z,49.40
2019-03-23T21:33:59.775Z,49.90
2019-03-23T21:36:28.991Z,50.20
2019-03-23T21:38:57.827Z,50.10
2019-03-23T21:41:26.681Z,50.70
2019-03-23T21:43:55.498Z,51.00
2019-03-23T21:46:27.104Z,51.40
2019-03-23T21:48:56.427Z,51.40
2019-03-23T21:51:27.153Z,51.90
2019-03-23T21:53:55.978Z,51.80
2019-03-23T21:56:24.880Z,52.70
2019-03-23T21:58:54.232Z,52.30
2019-03-23T22:01:23.467Z,52.60
2019-03-23T22:03:52.390Z,53.10
2019-03-23T22:06:21.302Z,53.50
2019-03-23T22:08:50.193Z,53.70
2019-03-23T22:11:19.061Z,54.10
2019-03-23T22:13:47.891Z,54.10
2019-03-23T22:16:17.293Z,54.20
2019-03-23T22:18:47.420Z,54.50
2019-03-23T22:21:16.286Z,54.20
2019-03-23T22:23:45.074Z,54.80
2019-03-23T22:26:13.840Z,54.80
2019-03-23T22:28:42.685Z,54.80
2019-03-23T22:31:11.512Z,55.20
2019-03-23T22:33:40.307Z,55.30
2019-03-23T22:36:09.391Z,56.00
2019-03-23T22:38:38.124Z,55.60
2019-03-23T22:41:06.906Z,56.30
2019-03-23T22:43:36.042Z,56.50
2019-03-23T22:46:17.423Z,56.60
2019-03-23T22:48:48.889Z,56.70
2019-03-23T22:51:17.787Z,56.90
2019-03-23T22:53:46.572Z,57.10
2019-03-23T22:56:15.572Z,57.20
2019-03-23T22:58:44.425Z,57.70
2019-03-23T23:01:13.794Z,57.80
2019-03-23T23:03:42.817Z,57.40
2019-03-23T23:06:11.722Z,57.80
2019-03-23T23:08:40.501Z,58.10
2019-03-23T23:11:09.407Z,58.10
2019-03-23T23:13:38.219Z,58.30
2019-03-23T23:16:07.352Z,58.70
2019-03-23T23:18:36.555Z,59.20
2019-03-23T23:21:05.389Z,59.10
2019-03-23T23:23:34.527Z,59.10
2019-03-23T23:26:03.497Z,60.00
2019-03-23T23:28:32.371Z,60.20
2019-03-23T23:31:01.517Z,60.60
2019-03-23T23:33:30.329Z,60.70
2019-03-23T23:35:59.593Z,61.20
2019-03-23T23:38:28.555Z,61.40
2019-03-23T23:40:57.667Z,61.50
2019-03-23T23:43:26.716Z,62.20
2019-03-23T23:45:55.568Z,61.40
2019-03-23T23:48:24.447Z,61.60
2019-03-23T23:50:53.994Z,62.20
2019-03-23T23:53:22.903Z,62.40
2019-03-23T23:55:51.731Z,62.50
2019-03-23T23:58:20.622Z,62.70
